METAR Data
IDs: Format: Raw Decoded Include TAF

Data at: 2204 UTC 01 Dec 2021

METAR for:KGEZ (Shelbyville Muni, IN, US)
Text:KGEZ 012153Z AUTO 24006KT 9SM OVC015 09/07 A2989 RMK AO2 SLP127 T00890067
Temperature: 8.9°C ( 48°F)
Dewpoint: 6.7°C ( 44°F) [RH = 86%]
Pressure (altimeter):29.89 inches Hg (1012.3 mb) [Sea level pressure: 1012.7 mb]
Winds:from the WSW (240 degrees) at 7 MPH (6 knots; 3.1 m/s)
Visibility: 9 sm ( 14 km)
Ceiling:1500 feet AGL
Clouds: overcast cloud deck at 1500 feet AGL
QC Flag:automated observation with no human augmentation